createdAt,value
2019-04-01T00:00:40.688Z,98.4
2019-04-01T00:01:41.357Z,99.1
2019-04-01T00:02:42.033Z,99.3
2019-04-01T00:03:42.712Z,100.0
2019-04-01T00:04:43.408Z,100.0
2019-04-01T00:05:44.087Z,99.9
2019-04-01T00:06:44.756Z,99.4
2019-04-01T00:07:45.443Z,99.8
2019-04-01T00:08:46.125Z,100.0
2019-04-01T00:09:46.807Z,100.0
2019-04-01T00:10:47.500Z,100.0
2019-04-01T00:11:48.171Z,100.0
2019-04-01T00:12:48.821Z,99.8
2019-04-01T00:13:49.504Z,99.4
2019-04-01T00:14:50.184Z,99.2
2019-04-01T00:15:50.866Z,99.8
2019-04-01T00:16:51.546Z,99.6
2019-04-01T00:17:52.237Z,99.9
2019-04-01T00:19:03.054Z,98.7
2019-04-01T00:19:53.590Z,98.8
2019-04-01T00:20:54.288Z,99.4
2019-04-01T00:21:54.962Z,99.2
2019-04-01T00:22:55.753Z,99.3
2019-04-01T00:23:56.472Z,100.0
2019-04-01T00:24:57.184Z,99.4
2019-04-01T00:25:57.831Z,99.2
2019-04-01T00:26:58.513Z,98.7
2019-04-01T00:27:59.188Z,98.3
2019-04-01T00:28:59.883Z,98.1
2019-04-01T00:30:00.546Z,98.0
2019-04-01T00:31:01.226Z,98.0
2019-04-01T00:32:01.913Z,98.0
2019-04-01T00:33:02.581Z,97.6
2019-04-01T00:34:03.263Z,97.0
2019-04-01T00:35:03.913Z,97.3
2019-04-01T00:36:04.596Z,97.3
2019-04-01T00:37:05.269Z,98.0
2019-04-01T00:38:05.953Z,98.0
2019-04-01T00:39:06.603Z,97.1
2019-04-01T00:40:07.361Z,96.6
2019-04-01T00:41:07.957Z,97.6
2019-04-01T00:42:08.610Z,97.0
2019-04-01T00:43:09.296Z,97.3
2019-04-01T00:44:09.944Z,98.1
2019-04-01T00:45:10.618Z,97.4
2019-04-01T00:46:11.324Z,97.7
2019-04-01T00:47:11.985Z,97.4
2019-04-01T00:48:12.665Z,97.0
2019-04-01T00:49:13.380Z,97.0
2019-04-01T00:50:14.027Z,96.9
2019-04-01T00:51:14.703Z,96.9
2019-04-01T00:52:15.383Z,96.9
2019-04-01T00:53:17.942Z,97.8
2019-04-01T00:54:16.743Z,97.8
2019-04-01T00:55:17.407Z,96.9
2019-04-01T00:56:18.096Z,97.0
2019-04-01T00:57:18.765Z,96.5
2019-04-01T00:58:19.437Z,97.0
2019-04-01T00:59:20.119Z,97.0
2019-04-01T01:00:20.790Z,97.2
2019-04-01T01:01:21.476Z,97.0
2019-04-01T01:02:22.161Z,97.0
2019-04-01T01:03:22.836Z,97.4
2019-04-01T01:04:23.510Z,97.3
2019-04-01T01:05:24.184Z,97.1
2019-04-01T01:06:24.861Z,96.6
2019-04-01T01:07:25.868Z,96.7
2019-04-01T01:08:26.455Z,96.2
2019-04-01T01:09:27.137Z,95.7
2019-04-01T01:10:27.813Z,95.8
2019-04-01T01:11:28.485Z,94.4
2019-04-01T01:12:29.171Z,95.0
2019-04-01T01:13:29.852Z,94.4
2019-04-01T01:14:30.530Z,94.8
2019-04-01T01:15:31.209Z,95.0
2019-04-01T01:16:31.889Z,94.1
2019-04-01T01:17:32.569Z,93.3
2019-04-01T01:18:33.249Z,93.4
2019-04-01T01:19:33.931Z,93.4
2019-04-01T01:20:34.601Z,92.9
2019-04-01T01:21:35.274Z,93.1
2019-04-01T01:22:35.958Z,93.2
2019-04-01T01:23:36.633Z,93.6
2019-04-01T01:24:37.312Z,94.7
2019-04-01T01:25:37.989Z,94.6
2019-04-01T01:26:38.666Z,94.1
2019-04-01T01:27:39.345Z,93.9
2019-04-01T01:28:40.022Z,94.3
2019-04-01T01:29:40.700Z,94.2
2019-04-01T01:30:41.381Z,94.3
2019-04-01T01:31:42.051Z,94.3
2019-04-01T01:32:42.728Z,94.7
2019-04-01T01:33:43.411Z,94.5
2019-04-01T01:34:44.083Z,94.6
2019-04-01T01:35:44.758Z,94.8
2019-04-01T01:36:45.406Z,95.1
2019-04-01T01:37:46.092Z,93.8
2019-04-01T01:38:46.762Z,93.4
2019-04-01T01:39:47.439Z,92.9
2019-04-01T01:40:48.116Z,93.6
2019-04-01T01:41:48.795Z,93.5
2019-04-01T01:42:49.477Z,93.6
2019-04-01T01:43:50.148Z,93.4
2019-04-01T01:44:50.823Z,93.2
2019-04-01T01:45:51.501Z,93.5
2019-04-01T01:46:52.183Z,93.0
2019-04-01T01:47:52.864Z,93.5
2019-04-01T01:48:53.621Z,93.4
2019-04-01T01:49:54.224Z,93.5
2019-04-01T01:50:54.893Z,93.7
2019-04-01T01:51:55.585Z,93.2
2019-04-01T01:52:56.249Z,93.0
2019-04-01T01:53:56.926Z,92.9
2019-04-01T01:54:57.617Z,92.0
2019-04-01T01:55:58.289Z,92.6
2019-04-01T01:56:58.973Z,91.2
2019-04-01T01:57:59.642Z,92.4
2019-04-01T01:59:00.319Z,92.1
2019-04-01T02:00:00.999Z,92.1
2019-04-01T02:01:01.675Z,92.4
2019-04-01T02:02:02.365Z,92.8
2019-04-01T02:03:03.030Z,93.1
2019-04-01T02:04:03.703Z,91.9
2019-04-01T02:05:04.379Z,92.4
2019-04-01T02:06:05.057Z,92.5
2019-04-01T02:07:05.735Z,92.6
2019-04-01T02:08:06.415Z,92.5
2019-04-01T02:09:07.089Z,92.6
2019-04-01T02:10:07.771Z,92.4
2019-04-01T02:11:08.452Z,93.0
2019-04-01T02:12:09.126Z,92.7
2019-04-01T02:13:09.805Z,92.0
2019-04-01T02:14:10.480Z,92.6
2019-04-01T02:15:11.156Z,91.8
2019-04-01T02:16:11.838Z,91.1
2019-04-01T02:17:12.516Z,91.0
2019-04-01T02:18:13.197Z,90.4
2019-04-01T02:19:13.875Z,89.6
2019-04-01T02:20:14.550Z,89.7
2019-04-01T02:21:15.230Z,90.5
2019-04-01T02:22:15.904Z,90.4
2019-04-01T02:23:16.578Z,91.0
2019-04-01T02:24:17.259Z,91.5
2019-04-01T02:25:17.932Z,92.5
2019-04-01T02:26:18.613Z,91.5
2019-04-01T02:27:19.287Z,91.8
2019-04-01T02:28:19.966Z,93.1
2019-04-01T02:29:20.642Z,93.6
2019-04-01T02:30:21.317Z,93.5
2019-04-01T02:31:22.006Z,93.3
2019-04-01T02:32:22.683Z,93.5
2019-04-01T02:33:23.354Z,93.4
2019-04-01T02:34:24.035Z,94.3
2019-04-01T02:35:24.707Z,93.9
2019-04-01T02:36:25.384Z,94.6
2019-04-01T02:37:26.067Z,93.8
2019-04-01T02:38:26.738Z,94.5
2019-04-01T02:39:27.410Z,94.3
2019-04-01T02:40:28.091Z,94.6
2019-04-01T02:41:28.783Z,94.2
2019-04-01T02:42:29.448Z,93.8
2019-04-01T02:43:30.124Z,93.1
2019-04-01T02:44:30.798Z,92.2
2019-04-01T02:45:31.476Z,91.6
2019-04-01T02:46:32.149Z,92.0
2019-04-01T02:47:32.824Z,92.3
2019-04-01T02:48:33.506Z,92.2
2019-04-01T02:49:34.272Z,91.5
2019-04-01T02:50:34.862Z,91.4
2019-04-01T02:51:35.544Z,92.2
2019-04-01T02:52:36.217Z,92.7
2019-04-01T02:53:36.890Z,92.4
2019-04-01T02:54:37.570Z,91.5
2019-04-01T02:55:38.244Z,91.9
2019-04-01T02:56:38.921Z,92.4
2019-04-01T02:57:39.598Z,92.7
2019-04-01T02:58:40.275Z,92.2
2019-04-01T02:59:40.965Z,92.0
2019-04-01T03:00:41.634Z,92.4
2019-04-01T03:01:42.322Z,92.2
2019-04-01T03:02:42.994Z,92.0
2019-04-01T03:03:43.665Z,91.1
2019-04-01T03:04:44.341Z,91.6
2019-04-01T03:05:45.023Z,92.0
2019-04-01T03:06:45.702Z,91.5
2019-04-01T03:07:46.399Z,91.1
2019-04-01T03:08:47.059Z,88.9
2019-04-01T03:09:47.730Z,88.7
2019-04-01T03:10:48.423Z,89.7
2019-04-01T03:11:49.127Z,90.4
2019-04-01T03:12:49.774Z,90.7
2019-04-01T03:13:50.448Z,89.8
2019-04-01T03:14:51.126Z,89.2
2019-04-01T03:15:51.804Z,90.4
2019-04-01T03:16:52.487Z,92.1
2019-04-01T03:17:53.156Z,92.5
2019-04-01T03:18:53.838Z,92.0
2019-04-01T03:19:54.521Z,91.7
2019-04-01T03:20:55.202Z,90.9
2019-04-01T03:21:55.889Z,90.7
2019-04-01T03:22:56.558Z,90.4
2019-04-01T03:23:57.235Z,90.7
2019-04-01T03:24:57.912Z,90.4
2019-04-01T03:25:58.589Z,90.5
2019-04-01T03:26:59.287Z,90.4
2019-04-01T03:27:59.973Z,89.5
2019-04-01T03:29:01.158Z,89.1
2019-04-01T03:30:01.843Z,89.5
2019-04-01T03:31:02.526Z,89.6
2019-04-01T03:32:03.213Z,89.2
2019-04-01T03:33:03.898Z,89.5
2019-04-01T03:34:04.560Z,90.3
2019-04-01T03:35:05.233Z,90.6
2019-04-01T03:36:05.908Z,91.0
2019-04-01T03:37:06.580Z,91.1
2019-04-01T03:38:07.265Z,92.7
2019-04-01T03:39:07.943Z,92.9
2019-04-01T03:40:08.618Z,92.2
2019-04-01T03:41:09.300Z,92.6
2019-04-01T03:42:09.967Z,92.4
2019-04-01T03:43:10.659Z,92.0
2019-04-01T03:44:11.327Z,92.2
2019-04-01T03:45:12.019Z,90.8
2019-04-01T03:46:12.690Z,91.3
2019-04-01T03:47:13.337Z,91.0
2019-04-01T03:48:14.014Z,91.7
2019-04-01T03:49:14.694Z,90.7
2019-04-01T03:50:15.370Z,89.7
2019-04-01T03:51:16.041Z,90.4
2019-04-01T03:52:16.716Z,90.0
2019-04-01T03:53:17.407Z,90.9
2019-04-01T03:54:18.078Z,91.5
2019-04-01T03:55:18.761Z,91.0
2019-04-01T03:56:19.439Z,90.3
2019-04-01T03:57:20.117Z,88.7
2019-04-01T03:58:20.794Z,88.6
2019-04-01T03:59:21.473Z,88.1
2019-04-01T04:00:22.155Z,87.7
2019-04-01T04:01:22.838Z,87.6
2019-04-01T04:02:23.610Z,88.8
2019-04-01T04:03:24.198Z,88.8
2019-04-01T04:04:24.873Z,88.9
2019-04-01T04:05:25.545Z,88.6
2019-04-01T04:06:26.229Z,88.8
2019-04-01T04:07:26.903Z,90.2
2019-04-01T04:08:27.590Z,90.4
2019-04-01T04:09:28.258Z,90.5
2019-04-01T04:10:28.939Z,90.0
2019-04-01T04:11:29.607Z,91.1
2019-04-01T04:12:30.288Z,91.0
2019-04-01T04:13:30.965Z,90.9
2019-04-01T04:14:31.634Z,90.9
2019-04-01T04:15:32.315Z,90.5
2019-04-01T04:16:32.990Z,89.7
2019-04-01T04:17:33.681Z,89.5
2019-04-01T04:18:34.342Z,90.1
2019-04-01T04:19:35.054Z,90.5
2019-04-01T04:20:35.694Z,90.3
2019-04-01T04:21:36.377Z,91.0
2019-04-01T04:22:37.062Z,90.4
2019-04-01T04:23:37.755Z,89.6
2019-04-01T04:24:38.457Z,88.9
2019-04-01T04:25:39.068Z,89.0
2019-04-01T04:26:39.750Z,89.3
2019-04-01T04:27:40.425Z,89.4
2019-04-01T04:28:41.101Z,90.2
2019-04-01T04:29:41.774Z,90.4
2019-04-01T04:30:42.460Z,90.9
2019-04-01T04:31:43.142Z,90.9
2019-04-01T04:32:43.810Z,90.6
2019-04-01T04:33:44.483Z,90.3
2019-04-01T04:34:45.171Z,90.2
2019-04-01T04:35:45.846Z,90.4
2019-04-01T04:36:46.521Z,90.4
2019-04-01T04:37:47.188Z,90.6
2019-04-01T04:38:47.871Z,90.4
2019-04-01T04:39:48.548Z,90.4
2019-04-01T04:40:49.216Z,90.5
2019-04-01T04:41:49.907Z,91.0
2019-04-01T04:42:50.580Z,91.0
2019-04-01T04:43:51.258Z,91.1
2019-04-01T04:44:51.942Z,90.3
2019-04-01T04:45:52.617Z,90.2
2019-04-01T04:46:53.300Z,90.1
2019-04-01T04:47:53.976Z,90.6
2019-04-01T04:48:54.653Z,90.5
2019-04-01T04:49:55.329Z,90.5
2019-04-01T04:50:56.062Z,90.5
2019-04-01T04:51:56.719Z,90.7
2019-04-01T04:52:57.404Z,90.9
2019-04-01T04:53:58.085Z,91.5
2019-04-01T04:54:58.767Z,92.1
2019-04-01T04:55:59.445Z,92.1
2019-04-01T04:57:00.123Z,92.7
2019-04-01T04:58:00.803Z,92.3
2019-04-01T04:59:01.486Z,92.6
2019-04-01T05:00:02.167Z,92.6
2019-04-01T05:01:02.839Z,93.1
2019-04-01T05:02:03.522Z,93.5
2019-04-01T05:03:04.203Z,93.4
2019-04-01T05:04:04.891Z,92.9
2019-04-01T05:05:05.565Z,92.3
2019-04-01T05:06:06.248Z,92.2
2019-04-01T05:07:06.925Z,92.5
2019-04-01T05:08:07.602Z,91.8
2019-04-01T05:09:08.286Z,90.7
2019-04-01T05:10:08.967Z,90.8
2019-04-01T05:11:09.650Z,91.0
2019-04-01T05:12:10.324Z,90.5
2019-04-01T05:13:11.006Z,90.3
2019-04-01T05:14:11.692Z,90.3
2019-04-01T05:15:12.370Z,90.3
2019-04-01T05:16:13.080Z,90.5
2019-04-01T05:17:13.730Z,90.4
2019-04-01T05:18:14.423Z,90.7
2019-04-01T05:19:15.082Z,90.0
2019-04-01T05:20:16.721Z,90.5
2019-04-01T05:21:16.452Z,90.6
2019-04-01T05:22:17.156Z,90.5
2019-04-01T05:23:17.820Z,90.5
2019-04-01T05:24:18.499Z,91.8
2019-04-01T05:25:19.176Z,91.5
2019-04-01T05:26:19.854Z,91.9
2019-04-01T05:27:20.506Z,91.8
2019-04-01T05:28:21.190Z,91.7
2019-04-01T05:29:21.872Z,91.9
2019-04-01T05:30:22.553Z,91.9
2019-04-01T05:31:23.240Z,92.6
2019-04-01T05:32:23.925Z,92.5
2019-04-01T05:33:24.617Z,92.7
2019-04-01T05:34:25.303Z,92.1
2019-04-01T05:35:25.986Z,91.5
2019-04-01T05:36:26.655Z,91.6
2019-04-01T05:37:27.338Z,91.8
2019-04-01T05:38:28.021Z,92.0
2019-04-01T05:39:28.672Z,91.9
2019-04-01T05:40:29.354Z,92.1
2019-04-01T05:41:30.042Z,92.8
2019-04-01T05:42:30.715Z,93.1
2019-04-01T05:43:31.403Z,92.9
2019-04-01T05:44:32.080Z,93.6
2019-04-01T05:45:32.758Z,93.7
2019-04-01T05:46:33.445Z,93.8
2019-04-01T05:47:34.123Z,93.6
2019-04-01T05:48:34.805Z,94.2
2019-04-01T05:49:35.514Z,96.1
2019-04-01T05:50:36.178Z,96.2
2019-04-01T05:51:36.858Z,96.7
2019-04-01T05:52:37.536Z,97.8
2019-04-01T05:53:38.216Z,98.9
2019-04-01T05:54:38.902Z,98.8
2019-04-01T05:55:39.579Z,99.2
2019-04-01T05:56:40.279Z,99.9
2019-04-01T05:57:40.937Z,100.0
2019-04-01T05:58:41.625Z,100.0
2019-04-01T05:59:42.310Z,100.0
2019-04-01T06:00:42.997Z,100.0
2019-04-01T06:01:43.682Z,100.0
2019-04-01T06:02:44.350Z,100.0
2019-04-01T06:03:45.036Z,100.0
2019-04-01T06:04:45.715Z,100.0
2019-04-01T06:05:46.406Z,100.0
2019-04-01T06:06:48.861Z,100.0
2019-04-01T06:07:47.759Z,100.0
2019-04-01T06:08:48.437Z,100.0
2019-04-01T06:09:49.124Z,100.0
2019-04-01T06:10:49.782Z,100.0
2019-04-01T06:11:50.466Z,100.0
2019-04-01T06:12:51.139Z,100.0
2019-04-01T06:13:51.820Z,100.0
2019-04-01T06:14:52.506Z,100.0
2019-04-01T06:15:53.182Z,100.0
2019-04-01T06:16:53.868Z,100.0
2019-04-01T06:17:54.543Z,100.0
2019-04-01T06:18:55.231Z,100.0
2019-04-01T06:19:55.910Z,100.0
2019-04-01T06:20:56.599Z,100.0
2019-04-01T06:21:57.276Z,100.0
2019-04-01T06:22:57.954Z,100.0
2019-04-01T06:23:58.642Z,100.0
2019-04-01T06:24:59.319Z,100.0
2019-04-01T06:26:00.007Z,100.0
2019-04-01T06:27:00.685Z,100.0
2019-04-01T06:28:01.371Z,100.0
2019-04-01T06:29:02.028Z,100.0
2019-04-01T06:30:02.710Z,100.0
2019-04-01T06:31:03.389Z,100.0
2019-04-01T06:32:04.070Z,100.0
2019-04-01T06:33:04.757Z,100.0
2019-04-01T06:34:05.436Z,100.0
2019-04-01T06:35:06.119Z,100.0
2019-04-01T06:36:06.804Z,100.0
2019-04-01T06:37:07.484Z,100.0
2019-04-01T06:38:08.170Z,100.0
2019-04-01T06:39:08.848Z,100.0
2019-04-01T06:40:09.532Z,100.0
2019-04-01T06:41:10.219Z,100.0
2019-04-01T06:42:10.910Z,100.0
2019-04-01T06:43:11.585Z,100.0
2019-04-01T06:44:12.267Z,100.0
2019-04-01T06:45:12.945Z,100.0
2019-04-01T06:46:13.631Z,100.0
2019-04-01T06:47:14.311Z,100.0
2019-04-01T06:48:15.006Z,100.0
2019-04-01T06:49:15.683Z,100.0
2019-04-01T06:50:16.362Z,100.0
2019-04-01T06:51:17.047Z,100.0
2019-04-01T06:52:17.733Z,100.0
2019-04-01T06:53:18.417Z,100.0
2019-04-01T06:54:19.099Z,100.0
2019-04-01T06:55:19.783Z,100.0
2019-04-01T06:56:20.516Z,100.0
2019-04-01T06:57:21.142Z,100.0
2019-04-01T06:58:21.830Z,100.0
2019-04-01T06:59:22.506Z,100.0
2019-04-01T07:00:23.195Z,100.0
2019-04-01T07:01:23.875Z,100.0
2019-04-01T07:02:24.559Z,100.0
2019-04-01T07:03:25.242Z,100.0
2019-04-01T07:04:25.924Z,100.0
2019-04-01T07:05:26.610Z,100.0
2019-04-01T07:06:27.295Z,100.0
2019-04-01T07:07:27.976Z,100.0
2019-04-01T07:08:28.659Z,100.0
2019-04-01T07:09:29.343Z,100.0
2019-04-01T07:10:30.028Z,100.0
2019-04-01T07:11:30.760Z,100.0
2019-04-01T07:12:31.386Z,100.0
2019-04-01T07:13:32.072Z,100.0
2019-04-01T07:14:32.756Z,100.0
2019-04-01T07:15:33.438Z,98.5
2019-04-01T07:16:34.120Z,98.8
2019-04-01T07:17:34.812Z,98.2
2019-04-01T07:18:35.491Z,98.5
2019-04-01T07:19:36.174Z,95.9
2019-04-01T07:20:36.828Z,96.7
2019-04-01T07:21:37.509Z,95.8
2019-04-01T07:22:38.191Z,94.1
2019-04-01T07:23:38.873Z,95.5
2019-04-01T07:24:39.560Z,95.0
2019-04-01T07:25:40.248Z,92.7
2019-04-01T07:26:40.924Z,91.7
2019-04-01T07:27:41.614Z,94.3
2019-04-01T07:28:42.303Z,90.1
2019-04-01T07:29:42.996Z,86.4
2019-04-01T07:30:43.683Z,86.3
2019-04-01T07:31:44.369Z,85.9
2019-04-01T07:32:45.048Z,86.2
2019-04-01T07:33:45.734Z,86.3
2019-04-01T07:34:46.417Z,86.0
2019-04-01T07:35:47.101Z,84.7
2019-04-01T07:36:47.783Z,85.1
2019-04-01T07:37:48.492Z,84.5
2019-04-01T07:38:49.165Z,84.8
2019-04-01T07:39:49.855Z,84.9
2019-04-01T07:40:50.536Z,83.1
2019-04-01T07:41:51.221Z,84.2
2019-04-01T07:42:52.343Z,84.5
2019-04-01T07:43:52.598Z,83.7
2019-04-01T07:44:53.280Z,82.7
2019-04-01T07:45:53.962Z,83.1
2019-04-01T07:46:54.646Z,83.1
2019-04-01T07:47:55.332Z,82.3
2019-04-01T07:48:56.015Z,83.4
2019-04-01T07:49:56.715Z,81.3
2019-04-01T07:50:57.483Z,80.2
2019-04-01T07:51:58.125Z,79.8
2019-04-01T07:52:58.809Z,79.5
2019-04-01T07:53:59.494Z,78.3
2019-04-01T07:55:00.391Z,77.9
2019-04-01T07:56:02.525Z,78.3
2019-04-01T07:57:01.554Z,77.4
2019-04-01T07:58:02.238Z,77.3
2019-04-01T07:59:02.915Z,77.2
2019-04-01T08:00:03.603Z,77.8
2019-04-01T08:01:04.287Z,78.0
2019-04-01T08:02:04.978Z,77.8
2019-04-01T08:03:05.663Z,77.1
2019-04-01T08:04:06.349Z,76.1
2019-04-01T08:05:07.035Z,75.3
2019-04-01T08:06:07.725Z,74.4
2019-04-01T08:07:08.413Z,74.3
2019-04-01T08:08:09.103Z,73.2
2019-04-01T08:09:09.786Z,73.0
2019-04-01T08:10:10.489Z,72.8
2019-04-01T08:11:11.160Z,72.0
2019-04-01T08:12:11.918Z,71.2
2019-04-01T08:13:12.532Z,70.3
2019-04-01T08:14:13.220Z,71.3
2019-04-01T08:15:13.906Z,71.5
2019-04-01T08:16:14.593Z,69.6
2019-04-01T08:17:15.283Z,68.4
2019-04-01T08:18:15.973Z,67.1
2019-04-01T08:19:16.665Z,66.6
2019-04-01T08:20:17.352Z,66.6
2019-04-01T08:21:18.042Z,65.9
2019-04-01T08:22:18.727Z,65.7
2019-04-01T08:23:19.416Z,65.8
2019-04-01T08:24:20.112Z,65.5
2019-04-01T08:25:20.794Z,65.4
2019-04-01T08:26:21.482Z,63.7
2019-04-01T08:27:22.174Z,63.4
2019-04-01T08:28:23.949Z,63.7
2019-04-01T08:29:29.941Z,63.4
2019-04-01T08:30:24.238Z,62.7
2019-04-01T08:31:24.924Z,63.4
2019-04-01T08:32:25.612Z,63.1
2019-04-01T08:33:26.307Z,63.0
2019-04-01T08:34:26.996Z,62.6
2019-04-01T08:35:27.692Z,63.2
2019-04-01T08:36:28.398Z,62.3
2019-04-01T08:37:29.086Z,62.6
2019-04-01T08:38:29.782Z,62.9
2019-04-01T08:39:30.470Z,62.5
2019-04-01T08:40:31.169Z,62.6
2019-04-01T08:41:31.852Z,61.7
2019-04-01T08:42:32.546Z,61.6
2019-04-01T08:43:33.243Z,61.7
2019-04-01T08:44:33.945Z,61.8
2019-04-01T08:45:34.675Z,62.3
2019-04-01T08:46:35.309Z,63.0
2019-04-01T08:47:36.041Z,60.7
2019-04-01T08:48:36.686Z,61.0
2019-04-01T08:49:37.379Z,60.1
2019-04-01T08:50:38.078Z,60.4
2019-04-01T08:51:38.769Z,60.7
2019-04-01T08:52:39.476Z,60.1
2019-04-01T08:53:40.170Z,60.9
2019-04-01T08:54:40.864Z,61.1
2019-04-01T08:55:41.555Z,61.0
2019-04-01T08:56:42.305Z,60.2
2019-04-01T08:57:43.023Z,60.1
2019-04-01T08:58:43.702Z,60.1
2019-04-01T08:59:44.376Z,59.8
2019-04-01T09:00:45.074Z,59.9
2019-04-01T09:01:45.759Z,58.0
2019-04-01T09:02:46.453Z,57.6
2019-04-01T09:03:47.143Z,58.0
2019-04-01T09:04:47.808Z,57.7
2019-04-01T09:05:48.528Z,58.4
2019-04-01T09:06:49.244Z,58.4
2019-04-01T09:07:49.871Z,59.0
2019-04-01T09:08:50.561Z,57.0
2019-04-01T09:09:51.253Z,56.3
2019-04-01T09:10:51.944Z,56.2
2019-04-01T09:11:52.637Z,56.5
2019-04-01T09:12:53.330Z,55.3
2019-04-01T09:13:54.026Z,54.4
2019-04-01T09:14:54.716Z,55.2
2019-04-01T09:15:55.409Z,55.7
2019-04-01T09:16:56.101Z,56.4
2019-04-01T09:17:56.766Z,56.2
2019-04-01T09:18:57.454Z,55.1
2019-04-01T09:19:58.147Z,55.1
2019-04-01T09:20:58.841Z,56.2
2019-04-01T09:21:59.540Z,55.0
2019-04-01T09:23:00.229Z,55.3
2019-04-01T09:24:00.921Z,54.4
2019-04-01T09:25:01.615Z,53.9
2019-04-01T09:26:02.313Z,54.0
2019-04-01T09:27:03.002Z,54.9
2019-04-01T09:28:03.692Z,53.8
2019-04-01T09:29:04.386Z,53.6
2019-04-01T09:30:05.075Z,53.7
2019-04-01T09:31:05.768Z,54.0
2019-04-01T09:32:06.469Z,53.4
2019-04-01T09:33:07.168Z,52.9
2019-04-01T09:34:07.853Z,51.7
2019-04-01T09:35:08.550Z,52.1
2019-04-01T09:36:09.246Z,51.9
2019-04-01T09:37:09.934Z,52.2
2019-04-01T09:38:10.630Z,52.2
2019-04-01T09:39:11.325Z,50.9
2019-04-01T09:40:12.022Z,50.0
2019-04-01T09:41:13.419Z,50.3
2019-04-01T09:42:13.404Z,51.3
2019-04-01T09:43:14.481Z,50.1
2019-04-01T09:44:14.788Z,49.8
2019-04-01T09:45:15.475Z,48.8
2019-04-01T09:46:16.169Z,48.8
2019-04-01T09:47:16.834Z,49.1
2019-04-01T09:48:17.530Z,47.3
2019-04-01T09:49:18.221Z,46.4
2019-04-01T09:50:18.911Z,47.4
2019-04-01T09:51:19.608Z,48.1
2019-04-01T09:52:20.302Z,47.6
2019-04-01T09:53:21.002Z,48.4
2019-04-01T09:54:21.691Z,49.0
2019-04-01T09:55:22.381Z,49.4
2019-04-01T09:56:23.077Z,49.1
2019-04-01T09:57:23.769Z,49.1
2019-04-01T09:58:24.464Z,49.9
2019-04-01T09:59:25.156Z,49.5
2019-04-01T10:00:25.857Z,49.4
2019-04-01T10:01:26.539Z,47.4
2019-04-01T10:02:32.074Z,46.3
2019-04-01T10:03:27.952Z,45.9
2019-04-01T10:04:28.678Z,46.1
2019-04-01T10:05:29.336Z,45.8
2019-04-01T10:06:30.005Z,46.5
2019-04-01T10:07:31.134Z,46.9
2019-04-01T10:08:42.033Z,46.6
2019-04-01T10:09:32.318Z,46.5
2019-04-01T10:10:33.027Z,46.6
2019-04-01T10:11:33.714Z,45.9
2019-04-01T10:12:34.414Z,45.2
2019-04-01T10:13:35.112Z,46.1
2019-04-01T10:14:35.793Z,46.4
2019-04-01T10:15:36.489Z,45.9
2019-04-01T10:16:37.188Z,45.9
2019-04-01T10:17:37.882Z,46.1
2019-04-01T10:18:38.577Z,44.3
2019-04-01T10:19:39.274Z,44.9
2019-04-01T10:20:39.965Z,45.6
2019-04-01T10:21:40.661Z,45.7
2019-04-01T10:22:41.358Z,46.1
2019-04-01T10:23:42.051Z,46.4
2019-04-01T10:24:42.760Z,46.2
2019-04-01T10:25:43.440Z,45.6
2019-04-01T10:26:44.138Z,45.6
2019-04-01T10:27:44.801Z,46.1
2019-04-01T10:28:45.499Z,45.9
2019-04-01T10:29:46.198Z,45.9
2019-04-01T10:30:46.891Z,45.0
2019-04-01T10:31:47.584Z,43.8
2019-04-01T10:32:48.280Z,42.7
2019-04-01T10:33:48.990Z,43.0
2019-04-01T10:34:49.669Z,43.3
2019-04-01T10:35:50.371Z,43.6
2019-04-01T10:36:51.064Z,43.8
2019-04-01T10:37:51.759Z,42.9
2019-04-01T10:38:52.451Z,42.7
2019-04-01T10:39:53.147Z,42.7
2019-04-01T10:40:53.845Z,41.9
2019-04-01T10:41:54.606Z,42.3
2019-04-01T10:42:55.314Z,42.3
2019-04-01T10:43:56.007Z,43.0
2019-04-01T10:44:56.699Z,42.8
2019-04-01T10:45:57.401Z,42.2
2019-04-01T10:46:58.092Z,42.0
2019-04-01T10:47:58.847Z,41.6
2019-04-01T10:48:59.503Z,41.6
2019-04-01T10:50:00.233Z,42.2
2019-04-01T10:51:00.879Z,41.8
2019-04-01T10:52:01.766Z,40.7
2019-04-01T10:53:02.260Z,40.2
2019-04-01T10:54:02.968Z,40.8
2019-04-01T10:55:03.673Z,40.9
2019-04-01T10:56:04.354Z,41.4
2019-04-01T10:57:05.103Z,42.3
2019-04-01T10:58:05.742Z,42.7
2019-04-01T10:59:06.492Z,42.7
2019-04-01T11:00:07.248Z,43.5
2019-04-01T11:01:07.838Z,43.4
2019-04-01T11:02:08.500Z,42.3
2019-04-01T11:03:09.199Z,41.8
2019-04-01T11:04:09.884Z,41.7
2019-04-01T11:05:10.649Z,43.4
2019-04-01T11:06:11.286Z,44.4
2019-04-01T11:07:12.010Z,45.7
2019-04-01T11:08:12.701Z,45.5
2019-04-01T11:09:13.380Z,44.5
2019-04-01T11:10:14.016Z,43.8
2019-04-01T11:11:14.707Z,43.9
2019-04-01T11:12:15.411Z,43.1
2019-04-01T11:13:16.102Z,43.3
2019-04-01T11:14:16.848Z,44.5
2019-04-01T11:15:17.495Z,44.3
2019-04-01T11:16:18.188Z,44.3
2019-04-01T11:17:18.883Z,44.2
2019-04-01T11:18:19.582Z,44.5
2019-04-01T11:19:20.283Z,44.7
2019-04-01T11:20:20.977Z,45.0
2019-04-01T11:21:21.682Z,43.4
2019-04-01T11:22:22.372Z,43.5
2019-04-01T11:23:23.087Z,43.0
2019-04-01T11:24:23.762Z,43.2
2019-04-01T11:25:24.460Z,43.3
2019-04-01T11:26:25.153Z,42.8
2019-04-01T11:27:25.848Z,42.1
2019-04-01T11:28:26.545Z,43.6
2019-04-01T11:29:27.249Z,43.6
2019-04-01T11:30:27.940Z,43.7
2019-04-01T11:31:28.682Z,43.8
2019-04-01T11:32:29.374Z,43.4
2019-04-01T11:33:30.034Z,43.9
2019-04-01T11:34:30.830Z,42.4
2019-04-01T11:35:31.432Z,42.4
2019-04-01T11:36:32.162Z,41.9
2019-04-01T11:37:32.827Z,41.3
2019-04-01T11:38:33.521Z,41.8
2019-04-01T11:39:34.260Z,43.5
2019-04-01T11:40:38.390Z,42.5
2019-04-01T11:41:35.623Z,42.1
2019-04-01T11:42:40.032Z,42.7
2019-04-01T11:43:37.058Z,43.4
2019-04-01T11:44:37.682Z,43.6
2019-04-01T11:45:38.454Z,43.3
2019-04-01T11:46:39.112Z,43.2
2019-04-01T11:47:39.806Z,43.1
2019-04-01T11:48:40.484Z,42.5
2019-04-01T11:49:41.201Z,42.3
2019-04-01T11:50:41.912Z,43.2
2019-04-01T11:51:42.588Z,42.8
2019-04-01T11:52:43.252Z,42.2
2019-04-01T11:53:43.943Z,42.4
2019-04-01T11:54:44.643Z,42.2
2019-04-01T11:55:45.339Z,42.9
2019-04-01T11:56:46.033Z,42.2
2019-04-01T11:57:46.733Z,42.0
2019-04-01T11:58:47.427Z,40.8
2019-04-01T11:59:48.127Z,40.4
2019-04-01T12:00:48.829Z,40.4
2019-04-01T12:01:49.528Z,40.4
2019-04-01T12:02:50.225Z,40.9
2019-04-01T12:03:50.922Z,40.3
2019-04-01T12:04:52.601Z,40.1
2019-04-01T12:05:52.679Z,40.3
2019-04-01T12:06:53.013Z,40.5
2019-04-01T12:07:53.712Z,41.3
2019-04-01T12:08:54.383Z,41.7
2019-04-01T12:09:55.949Z,40.9
2019-04-01T12:10:55.764Z,41.6
2019-04-01T12:11:56.465Z,41.4
2019-04-01T12:12:57.166Z,40.2
2019-04-01T12:13:57.865Z,40.6
2019-04-01T12:14:58.562Z,40.8
2019-04-01T12:15:59.262Z,40.8
2019-04-01T12:16:59.959Z,39.9
2019-04-01T12:18:00.653Z,40.0
2019-04-01T12:19:01.350Z,39.5
2019-04-01T12:20:02.052Z,39.1
2019-04-01T12:21:02.754Z,39.3
2019-04-01T12:22:03.443Z,39.4
2019-04-01T12:23:04.143Z,39.9
2019-04-01T12:24:04.843Z,40.1
2019-04-01T12:25:05.539Z,39.1
2019-04-01T12:26:14.984Z,39.0
2019-04-01T12:27:06.930Z,40.2
2019-04-01T12:28:07.629Z,39.6
2019-04-01T12:29:11.870Z,39.3
2019-04-01T12:30:09.030Z,39.3
2019-04-01T12:31:12.635Z,39.5
2019-04-01T12:32:10.405Z,39.5
2019-04-01T12:33:11.100Z,40.1
2019-04-01T12:34:11.809Z,39.8
2019-04-01T12:35:12.470Z,39.7
2019-04-01T12:36:13.166Z,39.8
2019-04-01T12:37:13.864Z,40.5
2019-04-01T12:38:14.607Z,39.7
2019-04-01T12:39:15.258Z,40.6
2019-04-01T12:40:15.953Z,39.2
2019-04-01T12:41:16.657Z,39.7
2019-04-01T12:42:17.351Z,40.8
2019-04-01T12:43:18.053Z,40.3
2019-04-01T12:44:18.753Z,40.4
2019-04-01T12:45:19.447Z,40.0
2019-04-01T12:46:20.144Z,39.4
2019-04-01T12:47:20.845Z,39.2
2019-04-01T12:48:21.545Z,38.9
2019-04-01T12:49:22.246Z,39.3
2019-04-01T12:50:22.947Z,39.4
2019-04-01T12:51:23.649Z,39.3
2019-04-01T12:52:24.346Z,39.9
2019-04-01T12:53:25.044Z,39.9
2019-04-01T12:54:25.751Z,40.1
2019-04-01T12:55:26.445Z,39.7
2019-04-01T12:56:27.149Z,40.0
2019-04-01T12:57:27.849Z,40.2
2019-04-01T12:58:28.547Z,39.8
2019-04-01T12:59:29.245Z,40.3
2019-04-01T13:00:30.043Z,39.1
2019-04-01T13:01:30.665Z,39.5
2019-04-01T13:02:31.362Z,39.9
2019-04-01T13:03:32.062Z,39.7
2019-04-01T13:04:35.912Z,40.4
2019-04-01T13:05:33.454Z,41.4
2019-04-01T13:06:34.155Z,42.0
2019-04-01T13:07:34.855Z,42.0
2019-04-01T13:08:35.564Z,41.5
2019-04-01T13:09:36.261Z,41.7
2019-04-01T13:10:36.936Z,42.8
2019-04-01T13:11:37.630Z,42.5
2019-04-01T13:12:38.328Z,41.9
2019-04-01T13:13:39.025Z,41.9
2019-04-01T13:14:40.170Z,42.0
2019-04-01T13:15:40.425Z,42.2
2019-04-01T13:16:41.126Z,42.8
2019-04-01T13:17:41.834Z,42.5
2019-04-01T13:18:42.519Z,42.4
2019-04-01T13:19:44.814Z,42.6
2019-04-01T13:20:43.909Z,43.1
2019-04-01T13:21:44.603Z,43.0
2019-04-01T13:22:45.300Z,43.4
2019-04-01T13:23:45.996Z,43.5
2019-04-01T13:24:46.696Z,43.2